Time;durP1;ratioP1;P1;durP2;ratioP2;P2;SDS_P1;SDS_P2;PMS_P1;PMS_P2;Temp;Humidity;BMP_temperature;BMP_pressure;BME280_temperature;BME280_humidity;BME280_pressure;Samples;Min_cycle;Max_cycle;Signal;HPM_P1;HPM_P2
2022/07/05 00:00:35;;;;;;;3.80;1.42;;;;;;;;;;4989281;28;20034;-87
2022/07/05 00:03:01;;;;;;;4.18;1.65;;;;;;;;;;4989488;28;20034;-86
2022/07/05 00:05:27;;;;;;;3.72;1.60;;;;;;;;;;5004372;28;20023;-85
2022/07/05 00:07:53;;;;;;;3.60;1.60;;;;;;;;;;4989464;28;20041;-84
2022/07/05 00:10:19;;;;;;;6.53;1.83;;;;;;;;;;5004533;28;20117;-84
2022/07/05 00:12:45;;;;;;;2.58;1.50;;;13.10;99.90;;;;;;4990205;28;20081;-87
2022/07/05 00:15:11;;;;;;;5.68;1.75;;;13.40;99.90;;;;;;4989939;28;20023;-84
2022/07/05 00:17:36;;;;;;;3.85;1.90;;;13.50;99.90;;;;;;4989302;28;20393;-86
2022/07/05 00:20:03;;;;;;;2.75;1.65;;;13.50;99.90;;;;;;4989242;28;20427;-86
2022/07/05 00:22:29;;;;;;;4.03;2.03;;;13.60;99.90;;;;;;4989282;28;20026;-86
2022/07/05 00:24:55;;;;;;;4.03;1.75;;;13.50;99.90;;;;;;5004488;28;20028;-86
2022/07/05 00:27:21;;;;;;;4.85;1.63;;;13.40;99.90;;;;;;5004434;28;20031;-85
2022/07/05 00:29:46;;;;;;;4.20;1.50;;;13.40;99.90;;;;;;5005055;28;20026;-85
2022/07/05 00:32:12;;;;;;;4.40;1.55;;;13.30;99.90;;;;;;4992805;28;20026;-87
2022/07/05 00:34:38;;;;;;;2.38;1.60;;;13.30;99.90;;;;;;4992974;28;20049;-84
2022/07/05 00:37:03;;;;;;;2.83;1.50;;;13.40;99.90;;;;;;4992872;28;20022;-87
2022/07/05 00:39:29;;;;;;;6.78;1.70;;;13.40;99.90;;;;;;5007785;28;20030;-86
2022/07/05 00:41:55;;;;;;;5.13;1.55;;;13.40;99.90;;;;;;5007804;28;20487;-87
2022/07/05 00:44:34;;;;;;;2.30;1.60;;;13.30;99.90;;;;;;4992962;28;20077;-86
2022/07/05 00:47:04;;;;;;;4.00;1.50;;;13.30;99.90;;;;;;4992625;28;20493;-87
2022/07/05 00:49:31;;;;;;;1.40;1.30;;;13.30;99.90;;;;;;4992576;28;20463;-85
2022/07/05 00:51:58;;;;;;;2.45;1.50;;;13.20;99.90;;;;;;4992595;28;20076;-85
2022/07/05 00:54:24;;;;;;;2.53;1.60;;;13.30;99.90;;;;;;4992630;28;20027;-87
2022/07/05 00:56:50;;;;;;;3.47;2.00;;;13.30;99.90;;;;;;4993231;28;20029;-86
2022/07/05 00:59:16;;;;;;;2.28;1.38;;;13.40;99.90;;;;;;4993212;28;20026;-86
2022/07/05 01:01:42;;;;;;;6.82;1.95;;;13.40;99.90;;;;;;4992361;28;20111;-86
2022/07/05 01:04:08;;;;;;;2.92;1.55;;;13.30;99.90;;;;;;4993702;28;20076;-87
2022/07/05 01:06:34;;;;;;;4.10;1.80;;;13.40;99.90;;;;;;5012462;28;20065;-85
2022/07/05 01:09:00;;;;;;;6.63;1.75;;;13.30;99.90;;;;;;5012229;28;20019;-85
2022/07/05 01:11:25;;;;;;;3.63;1.80;;;13.40;99.90;;;;;;5015867;28;20058;-84
2022/07/05 01:13:51;;;;;;;2.28;1.40;;;13.30;99.90;;;;;;4995812;28;20030;-87
2022/07/05 01:16:17;;;;;;;2.33;1.73;;;13.30;99.90;;;;;;4992823;28;20026;-87
2022/07/05 01:18:44;;;;;;;5.90;1.88;;;13.10;99.90;;;;;;4974793;28;20030;-88
2022/07/05 01:21:15;;;;;;;2.28;1.50;;;13.00;99.90;;;;;;4990982;28;20026;-87
2022/07/05 01:23:40;;;;;;;6.10;1.90;;;13.10;99.90;;;;;;4992051;28;20023;-84
2022/07/05 01:26:07;;;;;;;4.45;1.80;;;13.20;99.90;;;;;;4990907;28;20041;-85
2022/07/05 01:28:33;;;;;;;4.40;1.70;;;13.20;99.90;;;;;;4991974;28;20393;-87
2022/07/05 01:31:01;;;;;;;5.55;1.83;;;13.10;99.90;;;;;;4991856;28;20097;-84
2022/07/05 01:33:28;;;;;;;2.75;1.70;;;12.90;99.90;;;;;;4991759;28;20163;-84
2022/07/05 01:35:54;;;;;;;3.78;1.60;;;13.00;99.90;;;;;;4991725;28;20050;-84
2022/07/05 01:38:20;;;;;;;3.80;1.88;;;13.10;99.90;;;;;;4992489;28;20549;-87
2022/07/05 01:40:46;;;;;;;4.97;1.75;;;13.30;99.90;;;;;;4991690;28;20026;-88
2022/07/05 01:43:12;;;;;;;4.90;1.50;;;13.30;99.90;;;;;;4991672;28;20077;-87
2022/07/05 01:45:41;;;;;;;2.03;1.80;;;13.30;99.90;;;;;;5006788;28;20029;-87
2022/07/05 01:48:09;;;;;;;6.90;1.85;;;13.30;99.90;;;;;;4991766;28;20027;-87
2022/07/05 01:51:03;;;;;;;2.70;1.80;;;13.40;99.90;;;;;;5006439;28;20442;-87
2022/07/05 01:53:31;;;;;;;4.10;1.75;;;13.40;99.90;;;;;;4986317;28;20513;-85
2022/07/05 01:56:02;;;;;;;2.33;1.70;;;13.30;99.90;;;;;;4991452;28;20081;-84
2022/07/05 01:58:28;;;;;;;4.03;1.60;;;13.30;99.90;;;;;;4991465;28;20041;-86
2022/07/05 02:00:55;;;;;;;4.97;1.50;;;13.30;99.90;;;;;;4991506;28;20046;-84
2022/07/05 02:03:22;;;;;;;4.70;1.77;;;13.10;99.90;;;;;;4991934;28;20019;-87
2022/07/05 02:05:49;;;;;;;6.07;1.80;;;13.10;99.90;;;;;;4991216;28;20497;-84
2022/07/05 02:08:16;;;;;;;2.95;1.50;;;13.10;99.90;;;;;;4991322;28;20026;-87
2022/07/05 02:10:42;;;;;;;6.60;1.48;;;13.10;99.90;;;;;;4990018;28;20066;-87
2022/07/05 02:13:08;;;;;;;4.57;2.00;;;13.10;99.90;;;;;;4994877;28;20023;-87
2022/07/05 02:15:36;;;;;;;3.35;1.80;;;13.10;99.90;;;;;;4992767;28;20093;-88
2022/07/05 02:18:03;;;;;;;4.28;1.80;;;13.10;99.90;;;;;;4992946;28;20386;-88
2022/07/05 02:20:29;;;;;;;4.28;1.70;;;13.20;99.90;;;;;;5006583;28;20034;-88
2022/07/05 02:22:55;;;;;;;5.13;1.70;;;13.20;99.90;;;;;;4991916;28;20026;-87
2022/07/05 02:25:21;;;;;;;3.83;1.48;;;13.30;99.90;;;;;;4991756;28;20109;-86
2022/07/05 02:27:48;;;;;;;3.75;1.60;;;13.20;99.90;;;;;;4991089;28;20023;-88
2022/07/05 02:30:14;;;;;;;6.22;1.50;;;13.20;99.90;;;;;;4991244;28;20084;-87
2022/07/05 02:32:40;;;;;;;3.53;1.50;;;13.20;99.90;;;;;;4989690;28;20084;-88
2022/07/05 02:35:08;;;;;;;3.40;1.50;;;13.20;99.90;;;;;;4991020;28;20026;-89
2022/07/05 02:37:34;;;;;;;4.33;1.87;;;13.20;99.90;;;;;;4991077;28;20068;-88
2022/07/05 02:40:00;;;;;;;3.97;1.95;;;13.10;99.90;;;;;;4990657;28;20057;-86
2022/07/05 02:42:25;;;;;;;2.90;1.50;;;13.20;99.90;;;;;;4990083;28;20062;-88
2022/07/05 02:44:51;;;;;;;4.50;1.98;;;13.10;99.90;;;;;;4990658;28;20113;-86
2022/07/05 02:47:16;;;;;;;3.25;1.75;;;13.20;99.90;;;;;;4990720;28;20274;-86
2022/07/05 02:49:42;;;;;;;3.13;1.60;;;13.20;99.90;;;;;;4990533;28;20030;-87
2022/07/05 02:52:08;;;;;;;4.35;1.70;;;13.30;99.90;;;;;;4988886;28;20057;-86
2022/07/05 02:54:34;;;;;;;5.90;1.65;;;13.30;99.90;;;;;;4988744;28;20030;-87
2022/07/05 02:57:00;;;;;;;4.50;1.77;;;13.20;99.90;;;;;;5005700;28;20042;-85
2022/07/05 02:59:25;;;;;;;1.40;1.30;;;13.00;99.90;;;;;;4991052;28;20030;-88
2022/07/05 03:01:51;;;;;;;7.18;2.00;;;13.10;99.90;;;;;;4989847;28;20506;-87
2022/07/05 03:04:17;;;;;;;3.63;2.00;;;13.10;99.90;;;;;;5005267;28;20122;-86
2022/07/05 03:06:44;;;;;;;4.75;1.60;;;13.00;99.90;;;;;;4990167;28;20023;-87
2022/07/05 03:09:10;;;;;;;2.47;1.50;;;13.00;99.90;;;;;;4990357;28;20069;-87
2022/07/05 03:11:36;;;;;;;2.30;1.55;;;13.00;99.90;;;;;;4990132;28;20022;-84
2022/07/05 03:14:01;;;;;;;3.28;1.50;;;12.90;99.90;;;;;;4990084;28;20080;-86
2022/07/05 03:16:28;;;;;;;2.33;1.60;;;13.00;99.90;;;;;;4990858;28;20065;-85
2022/07/05 03:18:54;;;;;;;3.95;1.63;;;13.10;99.90;;;;;;5005532;28;20410;-88
2022/07/05 03:21:19;;;;;;;3.95;1.50;;;13.10;99.90;;;;;;4989743;28;20046;-87
2022/07/05 03:23:45;;;;;;;2.60;1.52;;;13.00;99.90;;;;;;4989939;28;20505;-88
2022/07/05 03:26:10;;;;;;;1.95;1.33;;;13.10;99.90;;;;;;5004947;28;20026;-88
2022/07/05 03:28:36;;;;;;;4.13;1.65;;;;;;;;;;4988573;28;20038;-86
2022/07/05 03:31:03;;;;;;;3.60;1.50;;;;;;;;;;4989909;28;20109;-86
2022/07/05 03:33:29;;;;;;;7.45;1.95;;;;;;;;;;4990645;28;20022;-87
2022/07/05 03:35:55;;;;;;;2.53;1.27;;;;;;;;;;5006132;28;20092;-91
2022/07/05 03:38:21;;;;;;;2.92;1.48;;;;;;;;;;4990887;28;20031;-87
2022/07/05 03:40:47;;;;;;;2.38;1.38;;;;;;;;;;4989760;28;20096;-84
2022/07/05 03:43:13;;;;;;;3.42;1.40;;;;;;;;;;4990212;28;20395;-89
2022/07/05 03:45:38;;;;;;;4.10;1.63;;;13.10;99.90;;;;;;4989824;28;20030;-84
2022/07/05 03:48:04;;;;;;;2.88;1.42;;;13.20;99.90;;;;;;4989681;28;20022;-87
2022/07/05 03:50:30;;;;;;;4.88;2.20;;;13.20;99.90;;;;;;4990237;28;20030;-85
2022/07/05 03:52:56;;;;;;;6.03;1.80;;;13.20;99.90;;;;;;4989243;28;20026;-87
2022/07/05 03:55:22;;;;;;;6.63;2.72;;;13.30;99.90;;;;;;4989997;28;20036;-88
2022/07/05 03:57:47;;;;;;;4.65;2.80;;;13.30;99.90;;;;;;4989668;28;20029;-85
2022/07/05 04:00:14;;;;;;;4.47;3.25;;;13.40;99.90;;;;;;4989321;28;20038;-89
2022/07/05 04:02:40;;;;;;;5.90;3.05;;;13.40;99.90;;;;;;5004353;28;20398;-83
2022/07/05 04:05:06;;;;;;;4.25;3.10;;;13.40;99.90;;;;;;4989917;28;20035;-88
2022/07/05 04:07:32;;;;;;;5.05;3.20;;;13.40;99.90;;;;;;4993649;28;20487;-83
2022/07/05 04:09:58;;;;;;;3.38;2.70;;;13.40;99.90;;;;;;5010002;28;20018;-89
2022/07/05 04:12:23;;;;;;;4.22;2.50;;;13.50;99.90;;;;;;4993450;28;20498;-87
2022/07/05 04:14:49;;;;;;;4.75;2.60;;;13.40;99.90;;;;;;4993555;28;20066;-89
2022/07/05 04:17:15;;;;;;;5.28;2.38;;;13.50;99.90;;;;;;4993755;28;20105;-88
2022/07/05 04:19:40;;;;;;;3.65;2.30;;;13.50;99.90;;;;;;4993537;28;20126;-89
2022/07/05 04:22:06;;;;;;;5.20;2.45;;;13.40;99.90;;;;;;4994089;28;20038;-87
2022/07/05 04:25:16;;;;;;;5.78;2.50;;;13.50;99.90;;;;;;4994359;28;20394;-84
2022/07/05 04:27:18;;;;;;;6.25;2.60;;;13.50;99.90;;;;;;4983913;28;20105;-84
2022/07/05 04:29:44;;;;;;;4.75;2.33;;;13.50;99.90;;;;;;4983879;28;20055;-89
2022/07/05 04:32:09;;;;;;;4.47;2.20;;;13.50;99.90;;;;;;5001401;28;20025;-90
2022/07/05 04:34:35;;;;;;;5.13;2.15;;;13.50;99.90;;;;;;4981852;28;20131;-88
2022/07/05 04:37:00;;;;;;;3.92;2.33;;;13.50;99.90;;;;;;4991294;28;20056;-84
2022/07/05 04:39:26;;;;;;;5.95;2.53;;;13.60;99.90;;;;;;4992640;28;20410;-85
2022/07/05 04:41:52;;;;;;;3.25;2.30;;;13.50;99.90;;;;;;4993413;28;20650;-89
2022/07/05 04:44:17;;;;;;;3.47;2.00;;;13.60;99.90;;;;;;5009002;28;20018;-85
2022/07/05 04:46:43;;;;;;;3.35;2.30;;;13.60;99.90;;;;;;5009868;28;20084;-84
2022/07/05 04:49:08;;;;;;;3.65;2.20;;;13.60;99.90;;;;;;5013707;28;20033;-84
2022/07/05 04:51:34;;;;;;;5.20;2.05;;;13.60;99.90;;;;;;4999858;28;20034;-88
2022/07/05 04:53:59;;;;;;;6.13;2.20;;;13.70;99.90;;;;;;4995007;28;20018;-88
2022/07/05 04:56:25;;;;;;;7.82;2.30;;;13.60;99.90;;;;;;4992622;28;20038;-88
2022/07/05 04:58:51;;;;;;;3.30;2.00;;;13.80;99.90;;;;;;4995249;28;20105;-89
2022/07/05 05:01:16;;;;;;;3.45;2.00;;;13.80;99.90;;;;;;5006752;28;20073;-88
2022/07/05 05:03:42;;;;;;;5.15;2.30;;;13.70;99.90;;;;;;4991617;28;20026;-88
2022/07/05 05:06:08;;;;;;;6.90;2.20;;;13.80;99.90;;;;;;4991909;28;20102;-84
2022/07/05 05:08:33;;;;;;;4.68;2.20;;;13.80;99.90;;;;;;4991563;28;20038;-86
2022/07/05 05:10:59;;;;;;;4.45;2.20;;;13.80;99.90;;;;;;5002999;28;20030;-90
2022/07/05 05:13:25;;;;;;;2.58;2.13;;;14.00;99.90;;;;;;5027295;28;20025;-89
2022/07/05 05:15:50;;;;;;;5.03;1.95;;;14.00;99.90;;;;;;5011464;28;20450;-89
2022/07/05 05:18:18;;;;;;;6.90;2.00;;;;;;;;;;5011665;28;20581;-88
2022/07/05 05:20:44;;;;;;;3.88;1.92;;;;;;;;;;5010459;28;20044;-85
2022/07/05 05:23:10;;;;;;;4.07;1.88;;;;;;;;;;5012059;28;20022;-87
2022/07/05 05:25:36;;;;;;;3.53;2.10;;;;;;;;;;5012059;28;20033;-89
2022/07/05 05:28:03;;;;;;;5.78;2.30;;;;;;;;;;5011446;28;20033;-89
2022/07/05 05:30:29;;;;;;;5.72;1.98;;;;;;;;;;5011538;28;20393;-87
2022/07/05 05:32:55;;;;;;;5.07;2.00;;;;;;;;;;5011673;28;20269;-88
2022/07/05 05:35:21;;;;;;;5.00;2.10;;;;;;;;;;5011611;28;20032;-88
2022/07/05 05:37:54;;;;;;;4.30;2.15;;;;;;;;;;5011372;28;20029;-83
2022/07/05 05:40:22;;;;;;;6.53;2.30;;;14.30;99.90;;;;;;5011482;28;20026;-83
2022/07/05 05:42:48;;;;;;;4.87;2.20;;;14.80;99.90;;;;;;5011342;28;20478;-85
2022/07/05 05:45:14;;;;;;;4.20;2.00;;;14.80;99.90;;;;;;5026371;28;20028;-87
2022/07/05 05:47:58;;;;;;;4.75;2.15;;;14.80;99.90;;;;;;5011413;28;20030;-81
2022/07/05 05:50:27;;;;;;;6.60;2.05;;;14.90;99.90;;;;;;5011211;28;20025;-87
2022/07/05 05:52:53;;;;;;;4.03;2.00;;;14.90;99.90;;;;;;5011237;28;20026;-87
2022/07/05 05:55:20;;;;;;;3.50;1.80;;;14.90;99.90;;;;;;5011131;28;20026;-87
2022/07/05 05:57:46;;;;;;;3.20;1.95;;;15.00;99.90;;;;;;5006660;28;20030;-85
2022/07/05 06:00:12;;;;;;;4.53;1.70;;;15.10;99.90;;;;;;4989712;28;20029;-86
2022/07/05 06:02:39;;;;;;;3.47;1.88;;;15.10;99.90;;;;;;4989833;28;20029;-87
2022/07/05 06:05:06;;;;;;;6.00;2.00;;;15.30;99.90;;;;;;4986923;28;20514;-87
2022/07/05 06:07:42;;;;;;;4.80;1.90;;;15.30;99.90;;;;;;5006496;28;20090;-88
2022/07/05 06:10:08;;;;;;;8.18;1.70;;;15.30;99.90;;;;;;4988971;28;20395;-87
2022/07/05 06:12:33;;;;;;;6.68;1.73;;;15.30;99.90;;;;;;4991236;28;20029;-85
2022/07/05 06:14:59;;;;;;;5.75;1.70;;;15.30;99.90;;;;;;4990405;28;20037;-89
2022/07/05 06:17:24;;;;;;;4.45;1.65;;;15.30;99.90;;;;;;4990482;28;20030;-88
2022/07/05 06:19:50;;;;;;;6.35;1.70;;;15.30;99.90;;;;;;4990364;28;20086;-88
2022/07/05 06:22:16;;;;;;;7.57;2.15;;;15.40;99.90;;;;;;4990353;28;20578;-89
2022/07/05 06:24:41;;;;;;;5.85;1.88;;;15.20;99.90;;;;;;4990506;28;20482;-84
2022/07/05 06:27:07;;;;;;;4.78;1.90;;;15.10;99.90;;;;;;4989597;28;20076;-84
2022/07/05 06:29:32;;;;;;;4.43;1.70;;;14.20;99.90;;;;;;4990390;28;20023;-84
2022/07/05 06:31:59;;;;;;;3.58;1.70;;;15.10;99.90;;;;;;4990214;28;20524;-89
2022/07/05 06:34:25;;;;;;;5.35;1.90;;;15.10;99.90;;;;;;4990181;28;20031;-88
2022/07/05 06:36:51;;;;;;;3.70;1.77;;;15.10;99.90;;;;;;5005136;28;20022;-85
2022/07/05 06:39:17;;;;;;;5.53;1.67;;;15.10;99.90;;;;;;4989953;28;20030;-86
2022/07/05 06:41:42;;;;;;;3.45;1.70;;;15.10;99.90;;;;;;4989855;28;20034;-89
2022/07/05 06:44:08;;;;;;;5.63;1.73;;;15.20;99.90;;;;;;5005629;28;20483;-85
2022/07/05 06:46:34;;;;;;;7.15;1.60;;;15.30;99.90;;;;;;4989318;28;20018;-88
2022/07/05 06:48:59;;;;;;;5.55;1.63;;;15.40;99.90;;;;;;4990026;28;20394;-89
2022/07/05 06:51:25;;;;;;;5.13;1.65;;;15.40;99.90;;;;;;4989885;28;20026;-90
2022/07/05 06:53:51;;;;;;;2.42;1.48;;;15.30;99.90;;;;;;4990242;28;20023;-87
2022/07/05 06:56:16;;;;;;;9.57;1.50;;;15.40;99.90;;;;;;4990019;28;20101;-88
2022/07/05 06:58:42;;;;;;;3.63;1.38;;;15.40;99.90;;;;;;4989441;28;20068;-88
2022/07/05 07:01:08;;;;;;;4.78;1.30;;;15.50;99.90;;;;;;4990402;28;20105;-89
2022/07/05 07:03:33;;;;;;;3.25;1.40;;;15.60;99.90;;;;;;4989885;28;20537;-87
2022/07/05 07:05:59;;;;;;;2.47;1.20;;;15.70;99.90;;;;;;4988216;28;20278;-90
2022/07/05 07:11:10;;;;;;;2.70;1.20;;;15.80;99.90;;;;;;4989460;28;20390;-83
2022/07/05 07:13:35;;;;;;;7.43;1.10;;;15.80;99.90;;;;;;4990055;28;20018;-88
2022/07/05 07:16:01;;;;;;;2.28;1.02;;;15.90;99.90;;;;;;4985017;28;20541;-86
2022/07/05 07:18:27;;;;;;;2.53;1.05;;;16.00;99.90;;;;;;4987010;28;20088;-89
2022/07/05 07:20:53;;;;;;;3.50;1.15;;;16.10;99.90;;;;;;4988820;28;20030;-90
2022/07/05 07:23:19;;;;;;;1.27;0.88;;;16.10;99.90;;;;;;4989577;28;20514;-90
2022/07/05 07:25:44;;;;;;;1.30;0.90;;;16.20;99.90;;;;;;4997827;28;20025;-89
2022/07/05 07:28:10;;;;;;;2.95;0.98;;;16.00;99.90;;;;;;5011221;28;20030;-84
2022/07/05 07:30:36;;;;;;;1.02;0.90;;;15.90;99.90;;;;;;5010207;28;20086;-83
2022/07/05 07:33:01;;;;;;;1.63;0.80;;;15.80;99.90;;;;;;5009426;28;20069;-89
2022/07/05 07:35:27;;;;;;;1.67;0.77;;;15.80;99.90;;;;;;4998252;28;20037;-87
2022/07/05 07:37:52;;;;;;;1.15;0.70;;;15.80;99.90;;;;;;4990310;28;20034;-88
2022/07/05 07:40:18;;;;;;;3.03;1.08;;;16.00;99.90;;;;;;4989810;28;20445;-88
2022/07/05 07:42:44;;;;;;;5.47;0.90;;;16.20;99.90;;;;;;4989831;28;20090;-87
2022/07/05 07:45:10;;;;;;;0.80;0.80;;;16.30;99.90;;;;;;4989615;28;20027;-92
2022/07/05 07:47:36;;;;;;;4.43;0.90;;;16.20;99.90;;;;;;4988031;28;20050;-87
2022/07/05 07:50:04;;;;;;;3.40;1.10;;;16.20;99.90;;;;;;4987462;28;20390;-89
2022/07/05 07:52:30;;;;;;;0.73;0.70;;;16.10;99.90;;;;;;4988515;28;20030;-88
2022/07/05 07:54:56;;;;;;;1.65;1.02;;;16.10;99.90;;;;;;4988623;28;20069;-88
2022/07/05 07:57:22;;;;;;;2.15;0.95;;;16.30;99.90;;;;;;4988869;28;20045;-89
2022/07/05 07:59:47;;;;;;;1.30;0.90;;;16.40;99.90;;;;;;4989798;28;20494;-89
2022/07/05 08:02:13;;;;;;;2.03;1.00;;;16.60;99.90;;;;;;4989574;28;20049;-88
2022/07/05 08:04:39;;;;;;;1.52;1.10;;;16.60;99.90;;;;;;4990954;28;20095;-86
2022/07/05 08:07:04;;;;;;;1.45;0.93;;;16.60;99.90;;;;;;4990290;28;20505;-88
2022/07/05 08:09:31;;;;;;;2.25;1.00;;;16.70;99.90;;;;;;4990996;28;20109;-89
2022/07/05 08:11:57;;;;;;;1.00;0.90;;;16.60;99.90;;;;;;4990295;28;20446;-87
2022/07/05 08:14:23;;;;;;;2.28;0.90;;;16.60;99.90;;;;;;4991677;28;20052;-90
2022/07/05 08:16:49;;;;;;;3.45;1.20;;;16.70;99.90;;;;;;4988050;28;20402;-88
2022/07/05 08:22:01;;;;;;;2.03;0.90;;;17.00;99.90;;;;;;4986625;28;20509;-89
2022/07/05 08:24:27;;;;;;;2.05;0.93;;;17.20;99.90;;;;;;4984368;28;20033;-83
2022/07/05 08:26:52;;;;;;;1.13;0.82;;;17.20;99.90;;;;;;4986040;28;20035;-88
2022/07/05 08:29:18;;;;;;;4.90;1.30;;;17.10;99.90;;;;;;4987296;28;20027;-88
2022/07/05 08:31:49;;;;;;;4.82;1.23;;;17.10;99.90;;;;;;4987452;28;20036;-88
2022/07/05 08:34:17;;;;;;;1.75;0.98;;;17.20;99.90;;;;;;4987473;28;20034;-88
2022/07/05 08:36:44;;;;;;;2.55;1.00;;;17.10;99.90;;;;;;4987478;28;20023;-82
2022/07/05 08:39:10;;;;;;;1.20;0.80;;;16.90;99.90;;;;;;4988277;28;20059;-82
2022/07/05 08:41:38;;;;;;;3.50;0.90;;;16.90;99.90;;;;;;4985724;28;20034;-83
2022/07/05 08:44:04;;;;;;;2.17;1.13;;;16.90;99.90;;;;;;4987553;28;20032;-83
2022/07/05 08:46:32;;;;;;;2.63;1.10;;;17.20;99.90;;;;;;4988847;28;20027;-83
2022/07/05 08:49:00;;;;;;;2.50;0.95;;;17.40;99.90;;;;;;4988962;28;20541;-84
2022/07/05 08:51:28;;;;;;;2.97;0.95;;;17.60;99.90;;;;;;4989919;28;20019;-91
2022/07/05 08:53:55;;;;;;;2.97;1.00;;;17.90;99.90;;;;;;4992999;28;20080;-83
2022/07/05 08:56:21;;;;;;;0.90;0.90;;;18.00;99.90;;;;;;4992918;28;20110;-90
2022/07/05 08:58:49;;;;;;;1.20;0.88;;;18.00;99.90;;;;;;4993294;28;20113;-89
2022/07/05 09:01:15;;;;;;;4.55;1.45;;;17.90;99.90;;;;;;4993143;28;20030;-90
2022/07/05 09:03:47;;;;;;;1.10;0.98;;;18.00;99.90;;;;;;4993960;28;20030;-90
2022/07/05 09:06:15;;;;;;;4.85;1.10;;;18.10;99.90;;;;;;4993318;28;20547;-83
2022/07/05 09:08:41;;;;;;;3.08;0.98;;;18.40;99.90;;;;;;4993721;28;20176;-88
2022/07/05 09:11:10;;;;;;;2.50;0.98;;;18.20;99.90;;;;;;5008123;28;20510;-85
2022/07/05 09:13:38;;;;;;;1.35;0.80;;;18.20;99.90;;;;;;4992844;28;20026;-90
2022/07/05 09:16:05;;;;;;;2.63;0.95;;;18.40;99.90;;;;;;4992464;28;20022;-88
2022/07/05 09:18:56;;;;;;;3.97;1.10;;;18.20;99.90;;;;;;4992123;28;20030;-89
2022/07/05 09:21:24;;;;;;;1.30;0.90;;;18.40;99.90;;;;;;4991413;28;20034;-89
2022/07/05 09:24:02;;;;;;;2.85;1.00;;;18.30;99.90;;;;;;4992923;28;20035;-90
2022/07/05 09:26:35;;;;;;;3.90;1.07;;;18.50;99.90;;;;;;4991538;28;20026;-88
2022/07/05 09:29:02;;;;;;;2.03;0.90;;;18.40;99.90;;;;;;4992847;28;20274;-87
2022/07/05 09:31:32;;;;;;;3.03;1.63;;;18.60;99.90;;;;;;4992667;28;20042;-90
2022/07/05 09:34:12;;;;;;;1.85;0.90;;;18.60;99.90;;;;;;4991657;28;20634;-90
2022/07/05 09:36:54;;;;;;;1.08;0.90;;;18.70;99.90;;;;;;4993072;28;20026;-89
2022/07/05 09:39:29;;;;;;;2.35;0.80;;;18.60;99.90;;;;;;4992284;28;20031;-90
2022/07/05 09:42:13;;;;;;;1.90;0.93;;;18.80;99.90;;;;;;4991819;28;20494;-88
2022/07/05 09:44:42;;;;;;;1.38;0.90;;;18.70;99.90;;;;;;4992363;28;20061;-90
2022/07/05 09:47:12;;;;;;;1.58;0.90;;;18.70;99.90;;;;;;4992429;28;20080;-82
2022/07/05 09:49:52;;;;;;;1.20;0.80;;;19.00;99.90;;;;;;4992043;28;20434;-83
2022/07/05 09:52:28;;;;;;;3.85;0.98;;;;;;;;;;4992206;28;20036;-88
2022/07/05 09:55:04;;;;;;;1.73;0.85;;;19.00;99.90;;;;;;4991965;28;20018;-82
2022/07/05 09:57:30;;;;;;;1.67;1.08;;;18.70;99.90;;;;;;4992130;28;20027;-82
2022/07/05 10:00:08;;;;;;;4.50;0.93;;;18.50;99.90;;;;;;4991154;28;20034;-90
2022/07/05 10:02:45;;;;;;;4.40;1.10;;;18.60;99.90;;;;;;4991853;28;20042;-89
2022/07/05 10:05:16;;;;;;;3.58;1.08;;;18.70;99.90;;;;;;4993403;28;20023;-89
2022/07/05 10:07:44;;;;;;;3.00;1.15;;;18.80;99.90;;;;;;5009487;28;20087;-84
2022/07/05 10:10:15;;;;;;;5.60;1.13;;;18.90;99.90;;;;;;5008636;28;20343;-84
2022/07/05 10:12:43;;;;;;;3.03;1.00;;;18.80;99.90;;;;;;5004096;28;20015;-83
2022/07/05 10:15:11;;;;;;;2.17;0.82;;;19.00;99.90;;;;;;4981433;28;20022;-83
2022/07/05 10:17:43;;;;;;;3.30;1.02;;;18.80;99.90;;;;;;4990965;28;20065;-88
2022/07/05 10:20:21;;;;;;;1.75;0.82;;;18.90;99.90;;;;;;4991135;28;20049;-89
2022/07/05 10:22:47;;;;;;;2.15;0.93;;;18.90;99.90;;;;;;4991275;28;20502;-84
2022/07/05 10:25:14;;;;;;;4.10;1.30;;;19.00;99.90;;;;;;4991074;28;20097;-91
2022/07/05 10:27:40;;;;;;;5.00;1.10;;;18.80;99.90;;;;;;4989956;28;20034;-88
2022/07/05 10:30:07;;;;;;;1.42;0.98;;;19.20;99.90;;;;;;4989821;28;20479;-92
2022/07/05 10:32:35;;;;;;;3.33;1.00;;;19.30;99.90;;;;;;4989682;28;20483;-90
2022/07/05 10:35:05;;;;;;;1.65;0.82;;;19.30;99.90;;;;;;4989844;28;20011;-89
2022/07/05 10:37:33;;;;;;;1.45;0.95;;;19.40;99.90;;;;;;4987699;28;20022;-92
2022/07/05 10:40:01;;;;;;;3.53;1.13;;;19.40;99.70;;;;;;4988683;28;20509;-83
2022/07/05 10:42:39;;;;;;;1.70;0.93;;;19.30;99.90;;;;;;4989494;28;20038;-91
2022/07/05 10:45:29;;;;;;;1.83;0.85;;;19.50;99.90;;;;;;4989405;28;20022;-91
2022/07/05 10:48:10;;;;;;;2.40;1.10;;;19.50;95.50;;;;;;4988017;28;20094;-87
2022/07/05 10:51:07;;;;;;;1.48;0.90;;;19.20;96.20;;;;;;4987662;28;20030;-84
2022/07/05 10:53:35;;;;;;;2.05;0.95;;;19.30;95.70;;;;;;4987177;28;20395;-82
2022/07/05 10:56:04;;;;;;;1.48;0.82;;;19.50;98.70;;;;;;4988484;28;20105;-84
2022/07/05 10:58:43;;;;;;;2.05;1.10;;;19.60;97.50;;;;;;4986615;28;20060;-84
2022/07/05 11:01:20;;;;;;;1.45;0.90;;;19.50;99.60;;;;;;4969023;28;20026;-85
2022/07/05 11:04:01;;;;;;;5.13;1.23;;;19.50;99.90;;;;;;4989105;28;20030;-83
2022/07/05 11:06:33;;;;;;;3.10;0.80;;;19.70;99.90;;;;;;4985324;28;20022;-89
2022/07/05 11:08:59;;;;;;;1.42;0.85;;;19.60;94.20;;;;;;4989141;28;20390;-83
2022/07/05 11:11:29;;;;;;;1.55;0.90;;;19.50;97.20;;;;;;4988241;28;20018;-86
2022/07/05 11:13:58;;;;;;;3.25;1.08;;;19.30;93.00;;;;;;4988572;28;20018;-88
2022/07/05 11:16:28;;;;;;;1.13;0.90;;;19.60;95.50;;;;;;4988875;28;20106;-89
2022/07/05 11:19:04;;;;;;;2.53;0.90;;;19.60;96.80;;;;;;4988467;28;20099;-84
2022/07/05 11:21:30;;;;;;;1.60;0.90;;;19.80;96.60;;;;;;4985263;28;20038;-86
2022/07/05 11:24:19;;;;;;;5.35;1.02;;;19.80;95.10;;;;;;4988823;28;20014;-91
2022/07/05 11:26:47;;;;;;;2.83;1.15;;;19.90;94.00;;;;;;4988724;28;20029;-83
2022/07/05 11:29:42;;;;;;;2.63;0.88;;;19.90;90.60;;;;;;4990469;28;20478;-87
2022/07/05 11:32:10;;;;;;;0.85;0.60;;;20.00;90.50;;;;;;4990132;28;20461;-88
2022/07/05 11:34:37;;;;;;;1.30;1.15;;;19.90;92.10;;;;;;4990062;28;20383;-89
2022/07/05 11:37:26;;;;;;;1.10;1.00;;;20.00;93.40;;;;;;4989949;28;20030;-83
2022/07/05 11:40:04;;;;;;;2.28;1.15;;;20.00;92.00;;;;;;4989361;28;20030;-83
2022/07/05 11:42:30;;;;;;;2.70;1.08;;;19.90;92.80;;;;;;4989845;28;20400;-91
2022/07/05 11:44:56;;;;;;;1.38;0.68;;;19.70;91.10;;;;;;4989773;28;20031;-84
2022/07/05 11:47:22;;;;;;;3.78;1.05;;;19.90;94.80;;;;;;4989355;28;20042;-82
2022/07/05 11:49:55;;;;;;;2.00;1.08;;;20.00;92.20;;;;;;4988361;28;20085;-83
2022/07/05 11:52:32;;;;;;;3.15;1.00;;;20.00;91.20;;;;;;4989753;28;20034;-87
2022/07/05 11:55:00;;;;;;;3.08;0.95;;;20.10;94.20;;;;;;4989157;28;20034;-90
2022/07/05 11:57:26;;;;;;;1.45;0.90;;;20.10;93.40;;;;;;4989773;28;20026;-83
2022/07/05 11:59:52;;;;;;;2.47;1.08;;;20.10;93.80;;;;;;4989734;28;20034;-87
2022/07/05 12:02:18;;;;;;;2.08;1.00;;;20.10;94.50;;;;;;4989732;28;20548;-82
2022/07/05 12:04:48;;;;;;;0.73;0.73;;;20.20;93.10;;;;;;4990519;28;20085;-84
2022/07/05 12:07:33;;;;;;;2.28;0.90;;;20.30;91.20;;;;;;4990590;28;20054;-83
2022/07/05 12:12:47;;;;;;;2.05;1.00;;;20.40;91.50;;;;;;4990915;28;20095;-89
2022/07/05 12:15:19;;;;;;;3.15;1.00;;;20.20;93.60;;;;;;4991021;28;20026;-90
2022/07/05 12:17:46;;;;;;;2.38;1.00;;;20.20;93.90;;;;;;5005608;28;20150;-88
2022/07/05 12:20:22;;;;;;;2.05;1.00;;;20.30;95.10;;;;;;4989763;28;20105;-90
2022/07/05 12:22:48;;;;;;;1.02;0.90;;;20.50;93.40;;;;;;4990338;28;20038;-83
2022/07/05 12:25:19;;;;;;;1.50;0.90;;;20.50;92.00;;;;;;4988587;28;20579;-86
2022/07/05 12:27:47;;;;;;;4.38;1.20;;;20.40;92.40;;;;;;4993410;28;20026;-90
2022/07/05 12:30:14;;;;;;;3.00;1.30;;;20.30;91.60;;;;;;4993346;28;20085;-83
2022/07/05 12:33:06;;;;;;;6.90;1.17;;;20.50;87.20;;;;;;4993375;28;20109;-87
2022/07/05 12:35:36;;;;;;;0.93;0.77;;;20.40;90.70;;;;;;4993479;28;20034;-91
2022/07/05 12:38:07;;;;;;;1.15;0.80;;;20.20;89.00;;;;;;4993485;28;20097;-84
2022/07/05 12:40:33;;;;;;;2.65;1.10;;;20.40;93.10;;;;;;4992697;28;20026;-90
2022/07/05 12:43:19;;;;;;;2.25;1.08;;;20.50;91.30;;;;;;4993310;28;20034;-91
2022/07/05 12:46:01;;;;;;;2.50;1.10;;;20.70;92.50;;;;;;4994547;28;20018;-83
2022/07/05 12:48:32;;;;;;;2.22;1.27;;;20.80;90.00;;;;;;5003345;28;20041;-83
2022/07/05 12:50:58;;;;;;;2.78;1.15;;;;;;;;;;5023597;28;20480;-84
2022/07/05 12:58:57;;;;;;;2.20;1.20;;;20.40;91.70;;;;;;4998590;28;20029;-92
2022/07/05 13:01:25;;;;;;;2.70;1.13;;;20.60;92.40;;;;;;4993171;28;20084;-88
2022/07/05 13:03:59;;;;;;;2.47;1.08;;;20.80;94.60;;;;;;4993167;28;20081;-85
2022/07/05 13:06:56;;;;;;;2.80;1.17;;;21.00;92.60;;;;;;5008123;28;20026;-90
2022/07/05 13:09:28;;;;;;;3.03;1.10;;;20.90;91.10;;;;;;4992289;28;20073;-87
2022/07/05 13:12:23;;;;;;;2.83;1.13;;;20.80;88.90;;;;;;4993076;28;20026;-87
2022/07/05 13:14:53;;;;;;;1.48;1.00;;;20.70;90.10;;;;;;4993658;28;20199;-92